createdAt,value
2018-12-14T00:01:37.752Z,22.90
2018-12-14T00:04:06.236Z,28.33
2018-12-14T00:06:34.639Z,27.43
2018-12-14T00:09:04.881Z,27.83
2018-12-14T00:11:33.292Z,23.47
2018-12-14T00:14:01.657Z,26.30
2018-12-14T00:16:30.030Z,28.57
2018-12-14T00:18:58.425Z,30.23
2018-12-14T00:21:26.826Z,30.97
2018-12-14T00:23:55.734Z,25.23
2018-12-14T00:26:24.104Z,25.97
2018-12-14T00:28:52.431Z,25.80
2018-12-14T00:31:21.002Z,28.07
2018-12-14T00:33:49.387Z,26.20
2018-12-14T00:36:17.747Z,27.07
2018-12-14T00:38:46.346Z,26.93
2018-12-14T00:41:14.714Z,27.93
2018-12-14T00:43:44.010Z,26.23
2018-12-14T00:46:12.478Z,26.37
2018-12-14T00:48:40.854Z,24.40
2018-12-14T00:51:09.238Z,25.83
2018-12-14T00:53:37.576Z,23.63
2018-12-14T00:56:05.950Z,26.30
2018-12-14T00:58:34.303Z,25.80
2018-12-14T01:01:02.686Z,30.70
2018-12-14T01:03:31.117Z,22.80
2018-12-14T01:05:59.448Z,27.77
2018-12-14T01:08:27.949Z,23.80
2018-12-14T01:10:56.422Z,26.57
2018-12-14T01:13:24.808Z,25.33
2018-12-14T01:15:53.203Z,24.43
2018-12-14T01:18:21.635Z,26.60
2018-12-14T01:20:50.010Z,24.70
2018-12-14T01:23:18.393Z,23.47
2018-12-14T01:25:46.739Z,21.73
2018-12-14T01:28:15.423Z,23.53
2018-12-14T01:30:43.841Z,26.17
2018-12-14T01:33:12.208Z,24.93
2018-12-14T01:35:40.688Z,23.43
2018-12-14T01:38:09.142Z,23.60
2018-12-14T01:40:37.541Z,26.53
2018-12-14T01:43:05.898Z,22.10
2018-12-14T01:45:34.274Z,24.50
2018-12-14T01:48:02.605Z,23.07
2018-12-14T01:50:31.110Z,23.67
2018-12-14T01:52:59.494Z,25.37
2018-12-14T01:55:27.880Z,24.23
2018-12-14T01:57:56.579Z,22.40
2018-12-14T02:00:24.946Z,24.13
2018-12-14T02:02:53.313Z,22.30
2018-12-14T02:05:21.692Z,22.30
2018-12-14T02:07:50.049Z,20.30
2018-12-14T02:10:18.510Z,24.87
2018-12-14T02:12:46.885Z,23.53
2018-12-14T02:15:15.334Z,23.77
2018-12-14T02:17:43.717Z,27.13
2018-12-14T02:20:12.112Z,24.77
2018-12-14T02:22:40.485Z,24.93
2018-12-14T02:25:08.855Z,23.07
2018-12-14T02:27:37.224Z,25.27
2018-12-14T02:30:17.092Z,25.67
2018-12-14T02:32:45.482Z,23.73
2018-12-14T02:35:14.452Z,22.83
2018-12-14T02:37:43.333Z,24.33
2018-12-14T02:40:11.927Z,25.37
2018-12-14T02:42:40.273Z,26.83
2018-12-14T02:45:08.864Z,22.37
2018-12-14T02:47:37.238Z,24.23
2018-12-14T02:50:06.748Z,24.90
2018-12-14T02:52:35.092Z,24.97
2018-12-14T02:55:04.355Z,22.07
2018-12-14T02:57:32.786Z,21.63
2018-12-14T03:00:01.148Z,25.97
2018-12-14T03:02:29.523Z,25.77
2018-12-14T03:04:57.872Z,24.90
2018-12-14T03:07:33.012Z,24.77
2018-12-14T03:10:01.511Z,25.27
2018-12-14T03:12:30.458Z,23.93
2018-12-14T03:14:58.913Z,22.60
2018-12-14T03:17:27.579Z,19.60
2018-12-14T03:19:56.034Z,22.07
2018-12-14T03:22:25.010Z,19.80
2018-12-14T03:24:53.582Z,22.27
2018-12-14T03:27:21.926Z,20.30
2018-12-14T03:29:50.306Z,20.33
2018-12-14T03:32:18.655Z,22.63
2018-12-14T03:34:47.132Z,24.73
2018-12-14T03:37:15.963Z,21.07
2018-12-14T03:39:44.332Z,21.43
2018-12-14T03:42:12.738Z,22.70
2018-12-14T03:44:41.065Z,20.97
2018-12-14T03:47:09.414Z,25.07
2018-12-14T03:49:37.797Z,22.47
2018-12-14T03:52:06.745Z,23.60
2018-12-14T03:54:35.260Z,22.07
2018-12-14T03:57:03.620Z,20.50
2018-12-14T03:59:32.271Z,18.60
2018-12-14T04:02:00.603Z,22.93
2018-12-14T04:04:29.542Z,18.90
2018-12-14T04:06:57.921Z,20.70
2018-12-14T04:09:26.258Z,18.00
2018-12-14T04:11:54.664Z,18.47
2018-12-14T04:14:22.995Z,17.23
2018-12-14T04:16:58.145Z,18.10
2018-12-14T04:19:26.483Z,19.73
2018-12-14T04:21:54.840Z,17.67
2018-12-14T04:24:23.294Z,18.83
2018-12-14T04:26:51.675Z,20.63
2018-12-14T04:29:20.173Z,21.37
2018-12-14T04:31:48.535Z,22.70
2018-12-14T04:34:17.031Z,21.97
2018-12-14T04:36:46.405Z,22.30
2018-12-14T04:39:14.805Z,19.30
2018-12-14T04:41:43.180Z,20.27
2018-12-14T04:44:11.719Z,20.87
2018-12-14T04:46:40.096Z,22.27
2018-12-14T04:49:08.475Z,23.63
2018-12-14T04:51:36.934Z,20.13
2018-12-14T04:54:05.263Z,19.33
2018-12-14T04:56:33.647Z,16.43
2018-12-14T04:59:02.127Z,18.80
2018-12-14T05:01:30.635Z,21.30
2018-12-14T05:03:59.106Z,19.90
2018-12-14T05:06:27.461Z,18.90
2018-12-14T05:08:56.411Z,17.17
2018-12-14T05:11:24.774Z,16.87
2018-12-14T05:13:53.224Z,20.37
2018-12-14T05:16:21.625Z,18.90
2018-12-14T05:18:49.993Z,19.77
2018-12-14T05:21:18.360Z,20.90
2018-12-14T05:23:46.741Z,18.90
2018-12-14T05:26:15.141Z,22.13
2018-12-14T05:28:43.485Z,21.40
2018-12-14T05:31:11.898Z,20.03
2018-12-14T05:33:40.287Z,18.57
2018-12-14T05:36:08.639Z,20.07
2018-12-14T05:38:37.012Z,21.30
2018-12-14T05:41:05.399Z,22.00
2018-12-14T05:43:33.745Z,19.47
2018-12-14T05:46:02.105Z,18.33
2018-12-14T05:48:30.487Z,16.37
2018-12-14T05:50:58.993Z,17.83
2018-12-14T05:53:27.337Z,20.70
2018-12-14T05:55:55.709Z,21.50
2018-12-14T05:58:24.185Z,21.43
2018-12-14T06:00:52.598Z,17.47
2018-12-14T06:03:20.943Z,18.07
2018-12-14T06:05:49.331Z,19.00
2018-12-14T06:08:17.697Z,19.00
2018-12-14T06:10:46.061Z,16.50
2018-12-14T06:13:14.457Z,23.63
2018-12-14T06:15:42.941Z,19.80
2018-12-14T06:18:11.303Z,15.13
2018-12-14T06:20:39.672Z,22.60
2018-12-14T06:23:08.072Z,20.60
2018-12-14T06:25:36.538Z,19.03
2018-12-14T06:28:04.915Z,20.83
2018-12-14T06:30:33.273Z,20.30
2018-12-14T06:33:01.715Z,20.73
2018-12-14T06:35:30.219Z,19.63
2018-12-14T06:37:58.564Z,19.83
2018-12-14T06:40:26.939Z,19.00
2018-12-14T06:42:55.281Z,21.20
2018-12-14T06:45:23.762Z,20.23
2018-12-14T06:47:52.117Z,21.37
2018-12-14T06:50:20.611Z,23.37
2018-12-14T06:52:49.595Z,21.13
2018-12-14T06:55:17.924Z,20.93
2018-12-14T06:57:46.313Z,21.83
2018-12-14T07:00:14.817Z,21.30
2018-12-14T07:02:43.185Z,20.63
2018-12-14T07:05:11.536Z,20.80
2018-12-14T07:07:39.905Z,19.93
2018-12-14T07:10:08.411Z,20.67
2018-12-14T07:12:36.784Z,20.03
2018-12-14T07:15:05.622Z,19.20
2018-12-14T07:17:34.003Z,20.17
2018-12-14T07:20:02.377Z,16.47
2018-12-14T07:22:30.777Z,22.20
2018-12-14T07:24:59.242Z,26.40
2018-12-14T07:27:27.582Z,26.20
2018-12-14T07:29:55.948Z,26.93
2018-12-14T07:32:24.336Z,31.53
2018-12-14T07:34:52.718Z,24.30
2018-12-14T07:37:21.125Z,21.67
2018-12-14T07:39:49.563Z,20.93
2018-12-14T07:42:17.930Z,25.07
2018-12-14T07:44:46.555Z,21.70
2018-12-14T07:47:15.107Z,19.50
2018-12-14T07:49:43.606Z,21.53
2018-12-14T07:52:11.987Z,21.23
2018-12-14T07:54:40.341Z,21.40
2018-12-14T07:57:08.717Z,19.50
2018-12-14T07:59:37.060Z,18.97
2018-12-14T08:02:05.548Z,20.67
2018-12-14T08:04:34.203Z,21.07
2018-12-14T08:07:02.890Z,21.67
2018-12-14T08:09:31.246Z,20.67
2018-12-14T08:11:59.645Z,19.83
2018-12-14T08:14:27.986Z,18.70
2018-12-14T08:16:56.337Z,19.10
2018-12-14T08:19:24.752Z,17.70
2018-12-14T08:21:53.107Z,19.33
2018-12-14T08:24:21.586Z,21.97
2018-12-14T08:26:49.929Z,20.93
2018-12-14T08:29:18.293Z,21.57
2018-12-14T08:31:46.660Z,22.03
2018-12-14T08:34:15.053Z,19.03
2018-12-14T08:36:43.446Z,19.30
2018-12-14T08:39:11.833Z,19.80
2018-12-14T08:41:40.210Z,22.10
2018-12-14T08:44:11.733Z,20.40
2018-12-14T08:46:40.197Z,16.23
2018-12-14T08:49:08.579Z,21.83
2018-12-14T08:51:37.031Z,21.23
2018-12-14T08:54:05.407Z,20.90
2018-12-14T08:56:33.784Z,19.90
2018-12-14T08:59:02.259Z,20.70
2018-12-14T09:01:30.647Z,21.00
2018-12-14T09:03:58.996Z,22.73
2018-12-14T09:06:27.379Z,22.47
2018-12-14T09:08:55.764Z,18.90
2018-12-14T09:11:24.262Z,22.00
2018-12-14T09:13:52.662Z,21.30
2018-12-14T09:16:21.354Z,18.57
2018-12-14T09:18:49.761Z,22.93
2018-12-14T09:21:18.118Z,19.87
2018-12-14T09:23:46.505Z,22.27
2018-12-14T09:26:15.156Z,21.57
2018-12-14T09:28:43.730Z,23.60
2018-12-14T09:31:12.141Z,21.83
2018-12-14T09:33:40.510Z,22.57
2018-12-14T09:36:08.861Z,23.47
2018-12-14T09:38:37.222Z,23.83
2018-12-14T09:41:05.865Z,22.07
2018-12-14T09:43:34.293Z,17.57
2018-12-14T09:46:02.800Z,21.40
2018-12-14T09:48:31.261Z,25.83
2018-12-14T09:50:59.880Z,24.47
2018-12-14T09:53:28.290Z,25.07
2018-12-14T09:55:56.634Z,23.50
2018-12-14T09:58:25.046Z,22.70
2018-12-14T10:00:53.397Z,27.07
2018-12-14T10:03:24.782Z,22.90
2018-12-14T10:05:53.136Z,23.13
2018-12-14T10:08:22.096Z,23.73
2018-12-14T10:10:50.780Z,23.33
2018-12-14T10:13:19.553Z,28.13
2018-12-14T10:15:47.921Z,25.67
2018-12-14T10:18:16.284Z,27.50
2018-12-14T10:20:44.674Z,23.23
2018-12-14T10:23:13.045Z,21.87
2018-12-14T10:25:41.392Z,27.13
2018-12-14T10:28:09.753Z,28.23
2018-12-14T10:30:38.102Z,27.37
2018-12-14T10:33:06.486Z,26.07
2018-12-14T10:35:34.850Z,23.57
2018-12-14T10:38:03.373Z,26.07
2018-12-14T10:40:31.713Z,27.57
2018-12-14T10:43:00.085Z,25.30
2018-12-14T10:45:28.864Z,26.37
2018-12-14T10:47:57.246Z,22.67
2018-12-14T10:50:25.609Z,22.03
2018-12-14T10:52:54.046Z,24.23
2018-12-14T10:55:22.374Z,21.67
2018-12-14T10:57:51.068Z,25.67
2018-12-14T11:00:24.976Z,24.77
2018-12-14T11:02:53.385Z,21.50
2018-12-14T11:05:21.755Z,20.40
2018-12-14T11:07:50.132Z,22.07
2018-12-14T11:10:18.495Z,19.67
2018-12-14T11:12:46.941Z,24.30
2018-12-14T11:15:15.289Z,23.57
2018-12-14T11:17:43.660Z,24.10
2018-12-14T11:20:12.037Z,19.43
2018-12-14T11:22:40.427Z,22.97
2018-12-14T11:25:09.639Z,21.43
2018-12-14T11:27:37.995Z,20.97
2018-12-14T11:30:08.871Z,20.43
2018-12-14T11:32:37.256Z,20.40
2018-12-14T11:35:05.758Z,18.67
2018-12-14T11:37:34.097Z,19.30
2018-12-14T11:40:02.616Z,20.13
2018-12-14T11:42:30.959Z,19.47
2018-12-14T11:44:59.323Z,21.87
2018-12-14T11:47:28.226Z,18.40
2018-12-14T11:49:56.773Z,18.80
2018-12-14T11:52:25.124Z,21.50
2018-12-14T11:54:53.519Z,19.33
2018-12-14T11:57:21.913Z,19.53
2018-12-14T11:59:50.269Z,20.30
2018-12-14T12:02:18.623Z,20.03
2018-12-14T12:04:47.528Z,18.63
2018-12-14T12:07:15.937Z,18.97
2018-12-14T12:09:44.302Z,18.83
2018-12-14T12:12:12.669Z,17.43
2018-12-14T12:14:41.049Z,18.63
2018-12-14T12:17:09.397Z,19.87
2018-12-14T12:19:37.779Z,16.73
2018-12-14T12:22:06.277Z,25.70
2018-12-14T12:24:34.651Z,29.43
2018-12-14T12:27:03.997Z,22.60
2018-12-14T12:29:32.360Z,26.90
2018-12-14T12:32:00.717Z,24.23
2018-12-14T12:34:29.133Z,21.67
2018-12-14T12:36:57.509Z,19.60
2018-12-14T12:39:25.905Z,20.70
2018-12-14T12:41:54.250Z,20.80
2018-12-14T12:44:22.651Z,19.33
2018-12-14T12:46:51.006Z,29.97
2018-12-14T12:49:19.394Z,36.63
2018-12-14T12:51:47.979Z,26.83
2018-12-14T12:54:16.350Z,22.53
2018-12-14T12:56:44.839Z,21.47
2018-12-14T12:59:13.191Z,17.47
2018-12-14T13:01:42.148Z,16.03
2018-12-14T13:04:10.653Z,21.80
2018-12-14T13:06:39.057Z,18.53
2018-12-14T13:09:07.429Z,18.97
2018-12-14T13:11:35.800Z,20.00
2018-12-14T13:14:04.157Z,21.77
2018-12-14T13:16:32.569Z,19.87
2018-12-14T13:19:00.940Z,16.23
2018-12-14T13:21:29.317Z,18.03
2018-12-14T13:23:57.671Z,19.23
2018-12-14T13:26:26.043Z,17.77
2018-12-14T13:28:55.406Z,18.13
2018-12-14T13:31:24.747Z,18.67
2018-12-14T13:33:54.531Z,20.07
2018-12-14T13:36:23.011Z,21.17
2018-12-14T13:38:51.407Z,21.77
2018-12-14T13:41:19.955Z,22.87
2018-12-14T13:43:48.443Z,23.57
2018-12-14T13:46:16.902Z,22.90
2018-12-14T13:48:45.983Z,29.50
2018-12-14T13:51:14.459Z,17.70
2018-12-14T13:53:42.878Z,16.80
2018-12-14T13:56:11.248Z,21.60
2018-12-14T13:58:39.610Z,23.90
2018-12-14T14:01:08.044Z,18.20
2018-12-14T14:03:36.438Z,19.90
2018-12-14T14:06:04.915Z,27.33
2018-12-14T14:08:33.305Z,21.03
2018-12-14T14:11:02.475Z,22.23
2018-12-14T14:13:31.131Z,17.53
2018-12-14T14:15:59.639Z,16.67
2018-12-14T14:18:28.132Z,20.07
2018-12-14T14:20:56.629Z,17.47
2018-12-14T14:23:25.047Z,18.63
2018-12-14T14:25:53.446Z,16.20
2018-12-14T14:28:21.870Z,19.30
2018-12-14T14:30:50.350Z,23.73
2018-12-14T14:33:19.403Z,18.83
2018-12-14T14:35:47.787Z,14.43
2018-12-14T14:38:16.183Z,21.57
2018-12-14T14:40:44.651Z,18.87
2018-12-14T14:43:13.001Z,20.40
2018-12-14T14:45:41.401Z,19.63
2018-12-14T14:48:09.965Z,17.37
2018-12-14T14:50:38.317Z,18.03
2018-12-14T14:53:06.695Z,17.40
2018-12-14T14:55:35.219Z,14.07
2018-12-14T14:58:03.609Z,17.20
2018-12-14T15:00:33.351Z,17.13
2018-12-14T15:03:02.039Z,19.23
2018-12-14T15:05:30.421Z,17.10
2018-12-14T15:07:58.789Z,21.77
2018-12-14T15:10:27.251Z,18.53
2018-12-14T15:12:55.667Z,23.07
2018-12-14T15:15:24.011Z,16.17
2018-12-14T15:17:52.381Z,16.20
2018-12-14T15:20:20.787Z,16.43
2018-12-14T15:22:49.245Z,15.60
2018-12-14T15:25:17.658Z,16.93
2018-12-14T15:27:46.027Z,13.47
2018-12-14T15:30:14.516Z,17.70
2018-12-14T15:32:43.517Z,15.73
2018-12-14T15:35:11.898Z,15.40
2018-12-14T15:37:40.253Z,17.63
2018-12-14T15:40:10.860Z,18.93
2018-12-14T15:42:39.259Z,18.97
2018-12-14T15:45:13.148Z,19.93
2018-12-14T15:47:38.686Z,17.93
2018-12-14T15:50:07.672Z,19.33
2018-12-14T15:52:36.132Z,19.60
2018-12-14T15:55:05.173Z,21.77
2018-12-14T15:57:33.547Z,21.80
2018-12-14T16:00:01.946Z,19.20
2018-12-14T16:02:30.351Z,18.30
2018-12-14T16:04:58.737Z,18.43
2018-12-14T16:07:27.210Z,18.20
2018-12-14T16:09:55.607Z,17.57
2018-12-14T16:12:24.047Z,19.33
2018-12-14T16:14:52.451Z,17.50
2018-12-14T16:17:20.808Z,16.23
2018-12-14T16:19:49.461Z,16.20
2018-12-14T16:22:17.956Z,16.23
2018-12-14T16:24:46.320Z,13.63
2018-12-14T16:27:14.747Z,16.77
2018-12-14T16:29:43.120Z,15.77
2018-12-14T16:32:11.483Z,17.33
2018-12-14T16:34:39.893Z,13.80
2018-12-14T16:37:08.271Z,18.10
2018-12-14T16:39:36.612Z,20.73
2018-12-14T16:42:05.133Z,17.53
2018-12-14T16:44:33.480Z,18.30
2018-12-14T16:47:01.925Z,24.50
2018-12-14T16:49:30.323Z,19.77
2018-12-14T16:51:58.669Z,19.00
2018-12-14T16:54:27.041Z,17.83
2018-12-14T16:56:55.503Z,15.07
2018-12-14T16:59:23.871Z,21.47
2018-12-14T17:01:52.288Z,23.90
2018-12-14T17:04:20.761Z,20.17
2018-12-14T17:06:49.124Z,18.53
2018-12-14T17:09:17.605Z,15.63
2018-12-14T17:11:46.063Z,20.47
2018-12-14T17:14:14.426Z,17.57
2018-12-14T17:16:42.800Z,14.00
2018-12-14T17:19:11.264Z,19.30
2018-12-14T17:21:39.622Z,17.60
2018-12-14T17:24:08.022Z,16.50
2018-12-14T17:26:36.358Z,16.67
2018-12-14T17:29:05.309Z,16.57
2018-12-14T17:31:33.646Z,17.93
2018-12-14T17:34:02.018Z,17.10
2018-12-14T17:36:30.428Z,18.00
2018-12-14T17:38:58.778Z,12.20
2018-12-14T17:41:27.190Z,18.30
2018-12-14T17:43:55.607Z,18.50
2018-12-14T17:46:23.940Z,22.57
2018-12-14T17:48:52.345Z,18.27
2018-12-14T17:51:20.766Z,19.87
2018-12-14T17:53:49.355Z,20.90
2018-12-14T17:56:17.718Z,16.23
2018-12-14T17:58:46.136Z,20.37
2018-12-14T18:01:14.501Z,16.97
2018-12-14T18:03:42.880Z,19.50
2018-12-14T18:06:11.834Z,12.50
2018-12-14T18:08:40.189Z,15.87
2018-12-14T18:11:08.934Z,17.73
2018-12-14T18:13:37.483Z,18.20
2018-12-14T18:16:06.076Z,19.30
2018-12-14T18:18:34.863Z,16.93
2018-12-14T18:21:03.315Z,19.03
2018-12-14T18:23:31.660Z,16.03
2018-12-14T18:26:00.124Z,15.07
2018-12-14T18:28:28.570Z,16.23
2018-12-14T18:30:56.938Z,16.27
2018-12-14T18:33:25.318Z,18.40
2018-12-14T18:35:54.397Z,16.17
2018-12-14T18:38:22.740Z,16.83
2018-12-14T18:40:51.702Z,13.30
2018-12-14T18:43:20.183Z,16.90
2018-12-14T18:45:53.201Z,25.90
2018-12-14T18:48:18.991Z,18.93
2018-12-14T18:50:47.336Z,18.40
2018-12-14T18:53:15.726Z,18.70
2018-12-14T18:55:44.137Z,17.63
2018-12-14T18:58:12.655Z,15.63
2018-12-14T19:00:41.019Z,19.37
2018-12-14T19:03:09.423Z,17.17
2018-12-14T19:05:38.429Z,19.50
2018-12-14T19:08:06.771Z,19.43
2018-12-14T19:10:35.730Z,15.37
2018-12-14T19:13:04.197Z,16.83
2018-12-14T19:15:32.632Z,22.03
2018-12-14T19:18:00.985Z,20.30
2018-12-14T19:20:29.447Z,18.77
2018-12-14T19:22:57.860Z,15.87
2018-12-14T19:25:26.232Z,18.63
2018-12-14T19:27:54.806Z,13.30
2018-12-14T19:30:23.235Z,19.03
2018-12-14T19:32:51.588Z,18.63
2018-12-14T19:35:19.964Z,19.80
2018-12-14T19:37:48.514Z,15.43
2018-12-14T19:40:17.377Z,22.87
2018-12-14T19:42:45.787Z,18.33
2018-12-14T19:45:14.282Z,16.80
2018-12-14T19:47:42.815Z,22.60
2018-12-14T19:50:11.183Z,25.67
2018-12-14T19:52:39.613Z,27.33
2018-12-14T19:55:08.409Z,26.27
2018-12-14T19:57:36.769Z,21.10
2018-12-14T20:00:06.948Z,17.93
2018-12-14T20:02:35.553Z,18.50
2018-12-14T20:05:04.327Z,19.00
2018-12-14T20:07:32.721Z,17.60
2018-12-14T20:10:01.144Z,20.00
2018-12-14T20:12:29.933Z,18.30
2018-12-14T20:14:58.263Z,21.80
2018-12-14T20:17:26.691Z,20.50
2018-12-14T20:19:55.033Z,18.27
2018-12-14T20:22:23.498Z,18.40
2018-12-14T20:24:51.901Z,19.20
2018-12-14T20:27:20.365Z,21.23
2018-12-14T20:29:48.763Z,18.47
2018-12-14T20:32:17.176Z,21.40
2018-12-14T20:34:45.518Z,19.30
2018-12-14T20:37:14.050Z,19.37
2018-12-14T20:39:42.443Z,19.53
2018-12-14T20:42:10.937Z,24.70
2018-12-14T20:44:39.356Z,20.17
2018-12-14T20:47:07.709Z,21.10
2018-12-14T20:49:36.040Z,21.53
2018-12-14T20:52:04.453Z,19.70
2018-12-14T20:54:32.960Z,22.30
2018-12-14T20:57:01.408Z,20.77
2018-12-14T20:59:29.861Z,23.53
2018-12-14T21:01:58.493Z,23.20
2018-12-14T21:04:27.412Z,21.40
2018-12-14T21:06:55.836Z,23.17
2018-12-14T21:09:24.204Z,25.10
2018-12-14T21:11:52.552Z,21.17
2018-12-14T21:14:21.256Z,22.17
2018-12-14T21:16:50.229Z,22.50
2018-12-14T21:19:18.656Z,19.10
2018-12-14T21:21:47.124Z,21.33
2018-12-14T21:24:15.582Z,17.50
2018-12-14T21:26:43.946Z,15.77
2018-12-14T21:29:16.012Z,81.17
2018-12-14T21:31:42.815Z,137.20
2018-12-14T21:34:11.221Z,75.23
2018-12-14T21:36:39.814Z,67.77
2018-12-14T21:39:08.260Z,41.43
2018-12-14T21:41:36.690Z,27.40
2018-12-14T21:44:05.650Z,22.47
2018-12-14T21:46:34.057Z,21.77
2018-12-14T21:49:02.562Z,22.30
2018-12-14T21:51:30.976Z,22.93
2018-12-14T21:53:59.338Z,24.37
2018-12-14T21:56:27.682Z,18.77
2018-12-14T21:58:56.069Z,17.77
2018-12-14T22:01:24.463Z,24.50
2018-12-14T22:03:52.865Z,23.20
2018-12-14T22:06:21.269Z,23.90
2018-12-14T22:08:49.633Z,22.57
2018-12-14T22:11:18.030Z,19.73
2018-12-14T22:13:46.449Z,19.33
2018-12-14T22:16:14.784Z,21.30
2018-12-14T22:18:43.215Z,18.23
2018-12-14T22:21:11.602Z,21.30
2018-12-14T22:23:40.011Z,15.27
2018-12-14T22:26:08.472Z,18.87
2018-12-14T22:28:36.798Z,13.87
2018-12-14T22:31:05.157Z,22.30
2018-12-14T22:33:33.596Z,22.10
2018-12-14T22:36:03.567Z,22.80
2018-12-14T22:38:32.104Z,17.33
2018-12-14T22:41:00.497Z,19.00
2018-12-14T22:43:28.920Z,24.73
2018-12-14T22:45:57.324Z,21.33
2018-12-14T22:48:25.677Z,20.17
2018-12-14T22:50:54.097Z,23.57
2018-12-14T22:53:22.458Z,18.37
2018-12-14T22:55:50.831Z,20.57
2018-12-14T22:58:19.245Z,18.50
2018-12-14T23:00:53.166Z,19.07
2018-12-14T23:03:21.768Z,16.97
2018-12-14T23:05:50.607Z,22.13
2018-12-14T23:08:19.072Z,17.20
2018-12-14T23:10:47.531Z,18.83
2018-12-14T23:13:15.871Z,21.10
2018-12-14T23:15:44.418Z,16.03
2018-12-14T23:18:12.929Z,17.63
2018-12-14T23:20:41.306Z,22.93
2018-12-14T23:23:09.855Z,24.73
2018-12-14T23:25:38.214Z,25.20
2018-12-14T23:28:06.609Z,23.90
2018-12-14T23:30:34.958Z,20.90
2018-12-14T23:33:03.514Z,16.57
2018-12-14T23:35:31.862Z,23.17
2018-12-14T23:38:00.271Z,24.47
2018-12-14T23:40:28.674Z,26.33
2018-12-14T23:42:57.053Z,21.00
2018-12-14T23:45:25.495Z,23.47
2018-12-14T23:47:53.870Z,21.83
2018-12-14T23:50:22.240Z,20.80
2018-12-14T23:52:50.626Z,22.60
2018-12-14T23:55:19.051Z,23.90
2018-12-14T23:57:47.498Z,16.43
